M I D A S
Marine Information and Data Acquisition System
Tripno 1067 of the Zeeleeuw from 2006-04-12 06:24:14 to 2006-04-12 11:47:52
Back to CruiseResearch ActivitiesStationsMapUnderway DataData graphs

EquipmentUnitsComments
TimeDGPSUTC
LatitudeDGPSDM.mWGS84
LongitudeDGPSDM.mWGS84
SpeedMeteo Stationm/sRelative wind speed
DirectionMeteo StationdegRelative wind direction
TemperatureMeteo Stationdeg CelciusAir temperature
PressureMeteo StationPaAtmospheric pressure
HumidityMeteo Station%Relative humidity
Missing or incorrect values are displayed as -999
Metereological data collected by the RV Zeeleeuw from 2006-04-12 06:04:08 to 2006-04-12 12:02:19
Time Latitude Longitude Speed Direction Temperature Pressure Humidity
2006-04-12 06:05 51°13.602 2°56.099 -999 172 7.4 101110 82
2006-04-12 06:06 51°13.601 2°56.099 -999 196 7.4 101110 82
2006-04-12 06:07 51°13.601 2°56.098 -999 197 7.4 101110 82
2006-04-12 06:08 51°13.601 2°56.098 -999 206 7.4 101120 82
2006-04-12 06:09 51°13.602 2°56.099 -999 184 7.4 101110 83
2006-04-12 06:10 51°13.603 2°56.099 -999 186 7.4 101110 83
2006-04-12 06:11 51°13.604 2°56.099 -999 195 7.4 101110 83
2006-04-12 06:12 51°13.605 2°56.1 -999 203 7.4 101110 83
2006-04-12 06:13 51°13.606 2°56.099 -999 186 7.4 101110 83
2006-04-12 06:14 51°13.607 2°56.099 -999 182 7.4 101110 83
2006-04-12 06:15 51°13.607 2°56.099 -999 192 7.4 101120 83
2006-04-12 06:16 51°13.606 2°56.099 -999 174 7.4 101120 83
2006-04-12 06:17 51°13.604 2°56.099 -999 192 7.5 101110 83
2006-04-12 06:18 51°13.605 2°56.099 -999 171 7.5 101120 83
2006-04-12 06:19 51°13.605 2°56.099 -999 182 7.5 101120 83
2006-04-12 06:20 51°13.603 2°56.099 -999 177 7.6 101120 83
2006-04-12 06:21 51°13.6 2°56.097 -999 194 7.6 101120 83
2006-04-12 06:22 51°13.6 2°56.097 -999 203 7.5 101130 82
2006-04-12 06:23 51°13.6 2°56.097 -999 214 7.5 101120 83
2006-04-12 06:24 51°13.6 2°56.097 -999 189 7.6 101120 83
2006-04-12 06:25 51°13.599 2°56.097 -999 212 7.6 101130 83
2006-04-12 06:26 51°13.605 2°56.066 -999 197 7.5 101130 83
2006-04-12 06:27 51°13.622 2°55.978 -999 184 7.5 101140 83
2006-04-12 06:28 51°13.664 2°55.871 -999 196 7.6 101140 83
2006-04-12 06:29 51°13.703 2°55.774 -999 207 7.6 101140 83
2006-04-12 06:30 51°13.716 2°55.739 -999 213 7.6 101130 83
2006-04-12 06:31 51°13.714 2°55.744 -999 270 7.6 101130 83
2006-04-12 06:32 51°13.713 2°55.735 -999 339 7.6 101140 83
2006-04-12 06:33 51°13.761 2°55.703 -999 350 7.6 101110 83
2006-04-12 06:34 51°13.855 2°55.619 -999 -999 7.5 101120 83
2006-04-12 06:35 51°13.966 2°55.54 -999 353 7.5 101100 83
2006-04-12 06:36 51°14.079 2°55.459 -999 347 7.5 101110 84
2006-04-12 06:37 51°14.187 2°55.363 -999 354 7.5 101090 84
2006-04-12 06:38 51°14.289 2°55.211 -999 3 7.5 101100 84
2006-04-12 06:39 51°14.397 2°55.031 -999 353 7.5 101080 84
2006-04-12 06:40 51°14.536 2°54.88 -999 334 7.5 101090 85
2006-04-12 06:41 51°14.718 2°54.791 -999 340 7.5 101090 85
2006-04-12 06:42 51°14.91 2°54.698 -999 334 7.4 101080 85
2006-04-12 06:43 51°15.101 2°54.61 -999 332 7.5 101090 85
2006-04-12 06:44 51°15.296 2°54.584 -999 325 7.5 101100 85
2006-04-12 06:45 51°15.489 2°54.544 -999 323 7.5 101090 85
2006-04-12 06:46 51°15.686 2°54.488 -999 326 7.5 101100 86
2006-04-12 06:47 51°15.884 2°54.471 -999 323 7.5 101090 86
2006-04-12 06:48 51°16.075 2°54.461 -999 323 7.4 101080 85
2006-04-12 06:49 51°16.173 2°54.443 -999 317 7.5 101100 86
2006-04-12 06:50 51°16.204 2°54.423 -999 43 7.5 101110 85
2006-04-12 06:51 51°16.211 2°54.409 -999 41 7.4 101110 85
2006-04-12 06:52 51°16.216 2°54.394 -999 315 7.5 101120 85
2006-04-12 06:53 51°16.233 2°54.354 -999 351 7.5 101120 85
2006-04-12 06:54 51°16.236 2°54.288 -999 20 7.5 101140 86
2006-04-12 06:55 51°16.21 2°54.217 -999 67 7.4 101140 85
2006-04-12 06:56 51°16.163 2°54.16 -999 90 7.4 101130 85
2006-04-12 06:57 51°16.103 2°54.12 -999 125 7.4 101130 86
2006-04-12 06:58 51°16.048 2°54.125 -999 171 7.3 101140 86
2006-04-12 06:59 51°16.021 2°54.179 -999 251 7.5 101160 87
2006-04-12 07:00 51°16.018 2°54.222 -999 261 7.5 101170 86
2006-04-12 07:01 51°16.025 2°54.244 -999 279 7.5 101160 86
2006-04-12 07:02 51°16.038 2°54.252 -999 290 7.5 101140 86
2006-04-12 07:03 51°16.051 2°54.251 -999 301 7.5 101130 86
2006-04-12 07:04 51°16.061 2°54.249 -999 295 7.5 101140 86
2006-04-12 07:05 51°16.068 2°54.245 -999 296 7.5 101140 86
2006-04-12 07:06 51°16.064 2°54.241 -999 292 7.5 101150 86
2006-04-12 07:07 51°16.05 2°54.236 -999 282 7.5 101150 86
2006-04-12 07:08 51°16.055 2°54.238 -999 302 7.5 101150 87
2006-04-12 07:09 51°16.111 2°54.174 -999 343 7.5 101120 86
2006-04-12 07:10 51°16.19 2°54.043 -999 345 7.5 101130 86
2006-04-12 07:11 51°16.276 2°53.907 -999 347 7.5 101120 86
2006-04-12 07:12 51°16.352 2°53.791 -999 345 7.5 101140 86
2006-04-12 07:13 51°16.409 2°53.694 -999 353 7.5 101140 86
2006-04-12 07:14 51°16.463 2°53.597 -999 352 7.5 101130 86
2006-04-12 07:15 51°16.519 2°53.505 -999 349 7.5 101140 86
2006-04-12 07:16 51°16.574 2°53.412 -999 354 7.5 101140 86
2006-04-12 07:17 51°16.631 2°53.316 -999 349 7.5 101130 86
2006-04-12 07:18 51°16.69 2°53.225 -999 351 7.5 101130 86
2006-04-12 07:19 51°16.748 2°53.138 -999 343 7.5 101130 85
2006-04-12 07:20 51°16.806 2°53.052 -999 348 7.5 101130 85
2006-04-12 07:21 51°16.861 2°52.964 -999 358 7.5 101130 85
2006-04-12 07:22 51°16.917 2°52.878 -999 344 7.5 101140 85
2006-04-12 07:23 51°16.977 2°52.793 -999 339 7.5 101130 85
2006-04-12 07:24 51°17.036 2°52.713 -999 342 7.5 101150 86
2006-04-12 07:25 51°17.094 2°52.626 -999 343 7.5 101140 86
2006-04-12 07:26 51°17.155 2°52.54 -999 342 7.5 101140 85
2006-04-12 07:27 51°17.214 2°52.452 -999 349 7.5 101140 85
2006-04-12 07:28 51°17.273 2°52.361 -999 345 7.5 101150 86
2006-04-12 07:29 51°17.335 2°52.279 -999 337 7.5 101140 85
2006-04-12 07:30 51°17.4 2°52.207 -999 340 7.6 101140 86
2006-04-12 07:31 51°17.465 2°52.141 -999 334 7.5 101130 85
2006-04-12 07:32 51°17.532 2°52.076 -999 337 7.5 101150 86
2006-04-12 07:33 51°17.602 2°52.02 -999 333 7.4 101130 85
2006-04-12 07:34 51°17.668 2°51.965 -999 338 7.4 101130 85
2006-04-12 07:35 51°17.734 2°51.91 -999 335 7.3 101140 85
2006-04-12 07:36 51°17.794 2°51.86 -999 328 7.3 101140 85
2006-04-12 07:37 51°17.855 2°51.803 -999 336 7.3 101150 85
2006-04-12 07:38 51°17.917 2°51.751 -999 334 7.3 101140 84
2006-04-12 07:39 51°17.979 2°51.693 -999 339 7.4 101150 85
2006-04-12 07:40 51°18.045 2°51.63 -999 337 7.4 101160 85
2006-04-12 07:41 51°18.113 2°51.568 -999 331 7.4 101160 85
2006-04-12 07:42 51°18.171 2°51.513 -999 329 7.4 101140 85
2006-04-12 07:43 51°18.234 2°51.448 -999 337 7.4 101160 85
2006-04-12 07:44 51°18.299 2°51.379 -999 332 7.4 101150 85
2006-04-12 07:45 51°18.364 2°51.311 -999 331 7.4 101150 85
2006-04-12 07:46 51°18.43 2°51.248 -999 328 7.3 101150 85
2006-04-12 07:47 51°18.488 2°51.197 -999 326 7.3 101140 85
2006-04-12 07:48 51°18.527 2°51.14 -999 327 7.3 101160 86
2006-04-12 07:49 51°18.547 2°51.084 -999 354 7.3 101170 86
2006-04-12 07:50 51°18.542 2°51.022 -999 18 7.4 101180 86
2006-04-12 07:51 51°18.519 2°50.971 -999 48 7.4 101180 86
2006-04-12 07:52 51°18.477 2°50.923 -999 100 7.3 101160 85
2006-04-12 07:53 51°18.415 2°50.892 -999 123 7.3 101180 86
2006-04-12 07:54 51°18.358 2°50.885 -999 160 7.3 101180 86
2006-04-12 07:55 51°18.316 2°50.894 -999 216 7.3 101190 86
2006-04-12 07:56 51°18.296 2°50.919 -999 268 7.3 101210 85
2006-04-12 07:57 51°18.304 2°50.949 -999 283 7.3 101200 86
2006-04-12 07:58 51°18.329 2°50.96 -999 301 7.3 101190 85
2006-04-12 07:59 51°18.348 2°50.943 -999 317 7.3 101180 85
2006-04-12 08:00 51°18.36 2°50.918 -999 319 7.4 101180 85
2006-04-12 08:01 51°18.371 2°50.884 -999 334 7.4 101180 85
2006-04-12 08:02 51°18.377 2°50.838 -999 350 7.4 101170 85
2006-04-12 08:03 51°18.378 2°50.782 -999 353 7.4 101180 84
2006-04-12 08:04 51°18.408 2°50.705 -999 314 7.4 101160 84
2006-04-12 08:05 51°18.445 2°50.747 -999 269 7.4 101200 84
2006-04-12 08:06 51°18.453 2°50.79 -999 268 7.5 101210 85
2006-04-12 08:07 51°18.448 2°50.799 -999 278 7.5 101210 85
2006-04-12 08:08 51°18.438 2°50.798 -999 275 7.5 101220 85
2006-04-12 08:09 51°18.423 2°50.79 -999 280 7.5 101220 85
2006-04-12 08:10 51°18.405 2°50.778 -999 282 7.5 101210 85
2006-04-12 08:11 51°18.398 2°50.769 -999 310 7.5 101210 85
2006-04-12 08:12 51°18.423 2°50.706 -999 5 7.5 101200 85
2006-04-12 08:13 51°18.402 2°50.54 -999 36 7.4 101180 85
2006-04-12 08:14 51°18.382 2°50.333 -999 21 7.3 101180 85
2006-04-12 08:15 51°18.377 2°50.093 -999 21 7.3 101170 85
2006-04-12 08:16 51°18.354 2°49.844 -999 37 7.3 101170 85
2006-04-12 08:17 51°18.324 2°49.593 -999 31 7.3 101200 85
2006-04-12 08:18 51°18.295 2°49.347 -999 32 7.3 101180 85
2006-04-12 08:19 51°18.271 2°49.098 -999 32 7.2 101180 85
2006-04-12 08:20 51°18.246 2°48.856 -999 38 7.2 101180 86
2006-04-12 08:21 51°18.215 2°48.612 -999 36 7.2 101180 85
2006-04-12 08:22 51°18.187 2°48.368 -999 38 7.2 101180 86
2006-04-12 08:23 51°18.152 2°48.132 -999 45 7.1 101170 86
2006-04-12 08:24 51°18.115 2°47.897 -999 41 7.1 101180 86
2006-04-12 08:25 51°18.078 2°47.661 -999 44 7.2 101190 86
2006-04-12 08:26 51°18.039 2°47.426 -999 44 7.2 101190 86
2006-04-12 08:27 51°18 2°47.189 -999 42 7.2 101190 85
2006-04-12 08:28 51°17.96 2°46.951 -999 39 7.2 101200 86
2006-04-12 08:29 51°17.917 2°46.713 -999 45 7.1 101180 85
2006-04-12 08:30 51°17.879 2°46.468 -999 39 7.1 101190 85
2006-04-12 08:31 51°17.838 2°46.224 -999 40 7.1 101190 85
2006-04-12 08:32 51°17.795 2°45.975 -999 34 7.2 101200 85
2006-04-12 08:33 51°17.754 2°45.726 -999 39 7.2 101200 86
2006-04-12 08:34 51°17.716 2°45.48 -999 32 7.1 101190 85
2006-04-12 08:35 51°17.679 2°45.23 -999 32 7.2 101190 85
2006-04-12 08:36 51°17.647 2°44.979 -999 35 7.2 101200 85
2006-04-12 08:37 51°17.615 2°44.735 -999 33 7.2 101210 85
2006-04-12 08:38 51°17.586 2°44.489 -999 30 7.2 101220 86
2006-04-12 08:39 51°17.557 2°44.24 -999 27 7.2 101200 85
2006-04-12 08:40 51°17.529 2°43.996 -999 37 7.2 101210 85
2006-04-12 08:41 51°17.501 2°43.755 -999 28 7.2 101210 85
2006-04-12 08:42 51°17.476 2°43.518 -999 32 7.2 101210 85
2006-04-12 08:43 51°17.455 2°43.276 -999 32 7.2 101220 85
2006-04-12 08:44 51°17.435 2°43.034 -999 31 7.2 101220 85
2006-04-12 08:45 51°17.418 2°42.796 -999 33 7.3 101220 86
2006-04-12 08:46 51°17.4 2°42.557 -999 32 7.3 101220 85
2006-04-12 08:47 51°17.384 2°42.322 -999 33 7.3 101220 86
2006-04-12 08:48 51°17.362 2°42.093 -999 28 7.2 101220 85
2006-04-12 08:49 51°17.341 2°41.863 -999 32 7.2 101210 86
2006-04-12 08:50 51°17.321 2°41.617 -999 33 7.2 101230 86
2006-04-12 08:51 51°17.3 2°41.363 -999 32 7.3 101230 86
2006-04-12 08:52 51°17.272 2°41.108 -999 34 7.3 101220 86
2006-04-12 08:53 51°17.244 2°40.862 -999 28 7.2 101210 85
2006-04-12 08:54 51°17.215 2°40.602 -999 27 7.3 101220 86
2006-04-12 08:55 51°17.187 2°40.349 -999 31 7.3 101230 86
2006-04-12 08:56 51°17.161 2°40.087 -999 27 7.2 101220 86
2006-04-12 08:57 51°17.133 2°39.825 -999 31 7.2 101230 86
2006-04-12 08:58 51°17.111 2°39.565 -999 29 7.3 101250 86
2006-04-12 08:59 51°17.086 2°39.313 -999 34 7.3 101220 86
2006-04-12 09:00 51°17.053 2°39.066 -999 34 7.2 101230 86
2006-04-12 09:01 51°17.017 2°38.817 -999 32 7.2 101240 86
2006-04-12 09:02 51°16.984 2°38.577 -999 31 7.2 101220 86
2006-04-12 09:03 51°16.947 2°38.333 -999 38 7.2 101240 86
2006-04-12 09:04 51°16.915 2°38.09 -999 32 7.2 101240 86
2006-04-12 09:05 51°16.881 2°37.846 -999 33 7.1 101250 86
2006-04-12 09:06 51°16.846 2°37.598 -999 33 7.1 101240 86
2006-04-12 09:07 51°16.814 2°37.353 -999 32 7.1 101230 86
2006-04-12 09:08 51°16.802 2°37.119 -999 28 7.2 101250 86
2006-04-12 09:09 51°16.789 2°36.978 -999 33 7.2 101260 86
2006-04-12 09:10 51°16.773 2°36.899 -999 35 7.2 101280 86
2006-04-12 09:11 51°16.754 2°36.848 -999 53 7.1 101280 85
2006-04-12 09:12 51°16.725 2°36.801 -999 87 7.1 101270 86
2006-04-12 09:13 51°16.678 2°36.769 -999 113 7.1 101290 86
2006-04-12 09:14 51°16.622 2°36.76 -999 143 7.2 101290 86
2006-04-12 09:15 51°16.571 2°36.79 -999 174 7.2 101300 87
2006-04-12 09:16 51°16.54 2°36.841 -999 200 7.2 101300 87
2006-04-12 09:17 51°16.529 2°36.89 -999 241 7.1 101310 86
2006-04-12 09:18 51°16.53 2°36.92 -999 263 7.2 101310 86
2006-04-12 09:19 51°16.53 2°36.937 -999 271 7.3 101300 86
2006-04-12 09:20 51°16.532 2°36.948 -999 285 7.2 101310 85
2006-04-12 09:21 51°16.538 2°36.957 -999 295 7.3 101300 86
2006-04-12 09:22 51°16.556 2°36.957 -999 41 7.3 101310 86
2006-04-12 09:23 51°16.579 2°36.939 -999 337 7.3 101280 85
2006-04-12 09:24 51°16.608 2°36.906 -999 336 7.3 101280 85
2006-04-12 09:25 51°16.633 2°36.87 -999 343 7.3 101280 85
2006-04-12 09:26 51°16.653 2°36.837 -999 343 7.3 101280 85
2006-04-12 09:27 51°16.667 2°36.813 -999 337 7.4 101290 85
2006-04-12 09:28 51°16.663 2°36.813 -999 311 7.4 101300 85
2006-04-12 09:29 51°16.649 2°36.82 -999 291 7.4 101300 85
2006-04-12 09:30 51°16.635 2°36.826 -999 272 7.4 101320 85
2006-04-12 09:31 51°16.621 2°36.831 -999 264 7.4 101320 85
2006-04-12 09:32 51°16.609 2°36.839 -999 261 7.3 101320 84
2006-04-12 09:33 51°16.598 2°36.847 -999 265 7.3 101320 85
2006-04-12 09:34 51°16.586 2°36.855 -999 260 7.3 101320 85
2006-04-12 09:35 51°16.576 2°36.864 -999 265 7.3 101330 85
2006-04-12 09:36 51°16.566 2°36.876 -999 271 7.3 101340 85
2006-04-12 09:37 51°16.563 2°36.894 -999 267 7.3 101320 85
2006-04-12 09:38 51°16.59 2°36.979 -999 255 7.3 101330 85
2006-04-12 09:39 51°16.55 2°37.136 -999 135 7.3 101330 85
2006-04-12 09:40 51°16.42 2°37.202 -999 119 7.3 101320 85
2006-04-12 09:41 51°16.278 2°37.275 -999 108 7.3 101330 85
2006-04-12 09:42 51°16.126 2°37.343 -999 106 7.3 101320 85
2006-04-12 09:43 51°15.974 2°37.434 -999 131 7.4 101320 85
2006-04-12 09:44 51°15.824 2°37.561 -999 120 7.3 101330 85
2006-04-12 09:45 51°15.671 2°37.685 -999 112 7.3 101330 85
2006-04-12 09:46 51°15.521 2°37.81 -999 120 7.3 101330 85
2006-04-12 09:47 51°15.366 2°37.946 -999 130 7.3 101330 85
2006-04-12 09:48 51°15.21 2°38.08 -999 115 7.3 101340 85
2006-04-12 09:49 51°15.05 2°38.211 -999 121 7.3 101340 85
2006-04-12 09:50 51°14.891 2°38.337 -999 114 7.4 101340 85
2006-04-12 09:51 51°14.731 2°38.464 -999 119 7.4 101340 85
2006-04-12 09:52 51°14.569 2°38.59 -999 116 7.4 101340 85
2006-04-12 09:53 51°14.407 2°38.714 -999 122 7.4 101340 85
2006-04-12 09:54 51°14.241 2°38.826 -999 104 7.4 101350 85
2006-04-12 09:55 51°14.079 2°38.941 -999 119 7.4 101350 85
2006-04-12 09:56 51°13.904 2°38.992 -999 82 7.4 101350 85
2006-04-12 09:57 51°13.735 2°38.94 -999 72 7.3 101340 85
2006-04-12 09:58 51°13.579 2°38.849 -999 70 7.3 101330 85
2006-04-12 09:59 51°13.431 2°38.746 -999 64 7.3 101330 85
2006-04-12 10:00 51°13.285 2°38.644 -999 68 7.2 101340 85
2006-04-12 10:01 51°13.141 2°38.542 -999 68 7.2 101330 85
2006-04-12 10:02 51°12.998 2°38.439 -999 65 7.2 101340 86
2006-04-12 10:03 51°12.853 2°38.339 -999 64 7.2 101340 86
2006-04-12 10:04 51°12.711 2°38.232 -999 67 7.2 101330 86
2006-04-12 10:05 51°12.567 2°38.126 -999 69 7.2 101330 86
2006-04-12 10:06 51°12.423 2°38.02 -999 68 7.2 101330 86
2006-04-12 10:07 51°12.279 2°37.912 -999 61 7.2 101330 86
2006-04-12 10:08 51°12.135 2°37.81 -999 71 7.2 101340 86
2006-04-12 10:09 51°11.994 2°37.708 -999 67 7.2 101350 86
2006-04-12 10:10 51°11.853 2°37.604 -999 64 7.2 101350 86
2006-04-12 10:11 51°11.712 2°37.501 -999 66 7.2 101340 86
2006-04-12 10:12 51°11.572 2°37.401 -999 66 7.2 101350 86
2006-04-12 10:13 51°11.434 2°37.302 -999 64 7.2 101350 87
2006-04-12 10:14 51°11.295 2°37.203 -999 66 7.2 101340 86
2006-04-12 10:15 51°11.153 2°37.113 -999 65 7.2 101350 87
2006-04-12 10:16 51°11.009 2°37.03 -999 71 7.2 101360 87
2006-04-12 10:17 51°10.865 2°36.946 -999 63 7.2 101360 87
2006-04-12 10:18 51°10.724 2°36.862 -999 65 7.2 101360 87
2006-04-12 10:19 51°10.581 2°36.783 -999 72 7.2 101350 87
2006-04-12 10:20 51°10.435 2°36.721 -999 76 7.3 101370 87
2006-04-12 10:21 51°10.281 2°36.784 -999 111 7.5 101370 87
2006-04-12 10:22 51°10.182 2°37.014 -999 270 7.3 101380 86
2006-04-12 10:23 51°10.183 2°37.314 -999 270 7.4 101390 87
2006-04-12 10:24 51°10.23 2°37.615 -999 277 7.5 101390 87
2006-04-12 10:25 51°10.288 2°37.913 -999 280 7.6 101380 86
2006-04-12 10:26 51°10.338 2°38.216 -999 281 7.7 101390 86
2006-04-12 10:27 51°10.389 2°38.519 -999 292 7.7 101390 85
2006-04-12 10:28 51°10.44 2°38.823 -999 272 7.8 101380 85
2006-04-12 10:29 51°10.491 2°39.129 -999 287 7.8 101390 85
2006-04-12 10:30 51°10.541 2°39.433 -999 278 7.9 101390 85
2006-04-12 10:31 51°10.592 2°39.736 -999 286 7.9 101390 84
2006-04-12 10:32 51°10.643 2°40.037 -999 284 7.9 101390 84
2006-04-12 10:33 51°10.698 2°40.335 -999 264 8 101380 83
2006-04-12 10:34 51°10.751 2°40.634 -999 279 7.9 101390 83
2006-04-12 10:35 51°10.797 2°40.884 -999 261 8 101390 83
2006-04-12 10:36 51°10.836 2°41.102 -999 251 8 101390 83
2006-04-12 10:37 51°10.87 2°41.288 -999 263 7.9 101390 82
2006-04-12 10:38 51°10.893 2°41.468 -999 242 7.9 101390 82
2006-04-12 10:39 51°10.912 2°41.618 -999 238 7.8 101390 82
2006-04-12 10:40 51°10.922 2°41.698 -999 208 7.8 101390 82
2006-04-12 10:41 51°10.929 2°41.771 -999 246 7.7 101390 82
2006-04-12 10:42 51°10.952 2°41.853 -999 274 7.7 101390 83
2006-04-12 10:43 51°10.977 2°41.918 -999 281 7.8 101400 84
2006-04-12 10:44 51°11.006 2°41.974 -999 311 7.8 101390 84
2006-04-12 10:45 51°11.044 2°42.018 -999 323 7.8 101390 83
2006-04-12 10:46 51°11.082 2°42.042 -999 345 7.8 101380 83
2006-04-12 10:47 51°11.111 2°42.044 -999 6 7.8 101370 83
2006-04-12 10:48 51°11.129 2°42.022 -999 25 7.8 101390 83
2006-04-12 10:49 51°11.119 2°42.008 -999 76 7.8 101370 83
2006-04-12 10:50 51°11.084 2°42.029 -999 127 7.6 101380 83
2006-04-12 10:51 51°11.052 2°42.104 -999 149 7.6 101390 84
2006-04-12 10:52 51°11.037 2°42.187 -999 160 7.6 101390 85
2006-04-12 10:53 51°11.025 2°42.275 -999 206 7.5 101390 84
2006-04-12 10:54 51°11.046 2°42.384 -999 276 7.6 101400 85
2006-04-12 10:55 51°11.1 2°42.441 -999 330 7.6 101380 85
2006-04-12 10:56 51°11.142 2°42.427 -999 5 7.7 101370 85
2006-04-12 10:57 51°11.164 2°42.411 -999 9 7.7 101370 84
2006-04-12 10:58 51°11.173 2°42.431 -999 26 7.7 101370 84
2006-04-12 10:59 51°11.176 2°42.474 -999 56 7.7 101370 83
2006-04-12 11:00 51°11.18 2°42.525 -999 83 7.6 101370 84
2006-04-12 11:01 51°11.17 2°42.572 -999 110 7.5 101380 84
2006-04-12 11:02 51°11.107 2°42.699 -999 155 7.5 101380 85
2006-04-12 11:03 51°11.116 2°42.986 -999 294 7.6 101380 85
2006-04-12 11:04 51°11.155 2°43.319 -999 303 7.8 101390 86
2006-04-12 11:05 51°11.198 2°43.659 -999 288 7.9 101380 86
2006-04-12 11:06 51°11.244 2°44.025 -999 297 8 101380 85
2006-04-12 11:07 51°11.291 2°44.411 -999 303 8 101390 85
2006-04-12 11:08 51°11.337 2°44.798 -999 314 8.1 101390 84
2006-04-12 11:09 51°11.389 2°45.184 -999 312 8.2 101390 84
2006-04-12 11:10 51°11.449 2°45.566 -999 300 8.2 101380 83
2006-04-12 11:11 51°11.503 2°45.921 -999 282 8.2 101380 83
2006-04-12 11:12 51°11.557 2°46.268 -999 283 8.3 101390 83
2006-04-12 11:13 51°11.609 2°46.614 -999 271 8.3 101390 82
2006-04-12 11:14 51°11.664 2°46.96 -999 295 8.3 101390 82
2006-04-12 11:15 51°11.72 2°47.306 -999 289 8.4 101390 82
2006-04-12 11:16 51°11.791 2°47.642 -999 298 8.4 101390 82
2006-04-12 11:17 51°11.88 2°47.961 -999 300 8.5 101380 81
2006-04-12 11:18 51°11.982 2°48.27 -999 299 8.5 101390 81
2006-04-12 11:19 51°12.083 2°48.587 -999 309 8.5 101380 81
2006-04-12 11:20 51°12.194 2°48.899 -999 304 8.4 101380 80
2006-04-12 11:21 51°12.306 2°49.209 -999 298 8.4 101380 80
2006-04-12 11:22 51°12.421 2°49.519 -999 308 8.3 101380 80
2006-04-12 11:23 51°12.54 2°49.826 -999 302 8.3 101380 80
2006-04-12 11:24 51°12.666 2°50.125 -999 304 8.3 101370 80
2006-04-12 11:25 51°12.793 2°50.422 -999 302 8.2 101380 80
2006-04-12 11:26 51°12.92 2°50.716 -999 295 8.2 101380 81
2006-04-12 11:27 51°13.041 2°51.015 -999 42 8.2 101380 81
2006-04-12 11:28 51°13.167 2°51.309 -999 305 8.1 101380 81
2006-04-12 11:29 51°13.294 2°51.602 -999 311 8.2 101380 81
2006-04-12 11:30 51°13.421 2°51.897 -999 311 8.1 101390 81
2006-04-12 11:31 51°13.537 2°52.17 -999 296 8.1 101380 82
2006-04-12 11:32 51°13.636 2°52.41 -999 287 8.1 101370 82
2006-04-12 11:33 51°13.734 2°52.644 -999 297 8.2 101380 82
2006-04-12 11:34 51°13.832 2°52.878 -999 292 8.2 101390 82
2006-04-12 11:35 51°13.918 2°53.087 -999 271 8.3 101380 82
2006-04-12 11:36 51°13.98 2°53.252 -999 260 8.2 101390 81
2006-04-12 11:37 51°14.031 2°53.379 -999 256 8.2 101370 81
2006-04-12 11:38 51°14.074 2°53.482 -999 255 8.1 101390 81
2006-04-12 11:39 51°14.113 2°53.574 -999 244 8.1 101390 81
2006-04-12 11:40 51°14.147 2°53.66 -999 252 8 101390 81
2006-04-12 11:41 51°14.178 2°53.741 -999 258 8 101390 82
2006-04-12 11:42 51°14.207 2°53.817 -999 245 8 101390 82
2006-04-12 11:43 51°14.235 2°53.888 -999 248 8.1 101390 83
2006-04-12 11:44 51°14.272 2°53.971 -999 272 8 101390 83
2006-04-12 11:45 51°14.352 2°54.143 -999 278 8 101400 83
2006-04-12 11:46 51°14.407 2°54.454 -999 271 8.1 101400 83
2006-04-12 11:47 51°14.422 2°54.818 -999 286 8.1 101400 83
2006-04-12 11:48 51°14.347 2°55.119 -999 111 8.2 101400 83
2006-04-12 11:49 51°14.256 2°55.274 -999 133 8.2 101400 83
2006-04-12 11:50 51°14.176 2°55.38 -999 121 8.2 101400 82
2006-04-12 11:51 51°14.087 2°55.451 -999 90 8.2 101400 83
2006-04-12 11:52 51°14.007 2°55.507 -999 84 8.2 101400 83
2006-04-12 11:53 51°13.931 2°55.561 -999 70 8.3 101390 82
2006-04-12 11:54 51°13.853 2°55.618 -999 99 8.3 101390 82
2006-04-12 11:55 51°13.78 2°55.685 -999 147 8.4 101400 82
2006-04-12 11:56 51°13.721 2°55.774 -999 160 8.5 101390 82
2006-04-12 11:57 51°13.673 2°55.871 -999 133 8.6 101400 81
2006-04-12 11:58 51°13.641 2°55.941 -999 179 8.6 101400 80
2006-04-12 11:59 51°13.621 2°56.002 -999 185 8.6 101390 80
2006-04-12 12:00 51°13.609 2°56.059 -999 169 8.6 101400 79
2006-04-12 12:01 51°13.602 2°56.095 -999 162 8.6 101390 79
2006-04-12 12:02 51°13.601 2°56.099 -999 169 8.5 101400 79